Tiempo atmosférico en la estación meteorológica de Montehermoso, Cáceres (351 m.)



Fecha
DESCASC
Temp. máxima en grados centígrados (hora)
DESCASC
Temp. mínima en grados centígrados (hora)
DESCASC
Temp. media en grados centígrados
DESCASC
Racha de viento máxima en m/sg (hora)
DESCASC
Velocidad máxima media en intervalos de 10 minutos(hora)
DESCASC
Precipitaciones diarias en mm
DESCASC
Precipitaciones de 00:00 a 06:00 en mm
DESCASC
Precipitaciones de 06:00 a 12:00 en mm
DESCASC
Precipitaciones de 12:00 a 18:00 en mm
DESCASC
Precipitaciones de 18:00 a 24:00 en mm
DESCASC
25-04-2019 14.7 (17:40) 7.7 (08:10) 11.2 15.28 (18:10) 7.22 (18:10) 1.2 0.2 0.2 0.8 0
24-04-2019 15.8 (15:00) 5.7 (01:20) 10.8 13.89 (16:00) 8.33 (16:00) 21.4 2.2 13.6 1.4 4.2
23-04-2019 14.1 (00:00) 6.2 (23:50) 10.2 12.5 (16:40) 6.67 (16:40) 6.2 3.6 0 2.6 0
22-04-2019 21.5 (16:30) 6.8 (00:00) 14.2 10 (15:40) 4.44 (20:40) 0 0 0 0 0
21-04-2019 21.9 (16:20) 9 (00:00) 15.4 9.17 (12:00) 4.72 (12:30) 0 0 0 0 0
20-04-2019 25 (18:20) 9.2 (00:00) 17.1 7.78 (13:40) 4.44 (01:40) 0 0 0 0 0
19-04-2019 18.7 (15:10) 8.5 (00:00) 13.6 7.78 (15:20) 4.17 (15:20) 0 0 0 0 0
18-04-2019 18.9 (17:30) 10.1 (00:00) 14.5 9.17 (18:20) 4.72 (18:20) 3.2 2 1.2 0 0
17-04-2019 19.5 (15:40) 8.5 (00:00) 14 13.89 (17:30) 7.78 (16:00) 13.6 0 0 0.4 13.2
16-04-2019 22.9 (18:30) 4.7 (00:00) 13.8 10 (16:40) 5.28 (17:30) 0 0 0 0 0
15-04-2019 20.6 (14:50) 10.5 (00:00) 15.6 13.89 (15:20) 9.44 (15:20) 0.6 0 0 0.6 0
14-04-2019 24.1 (18:20) 10.1 (00:00) 17.1 5.83 (18:10) 3.06 (15:20) 0 0 0 0 0
13-04-2019 23.4 (17:20) 7.4 (00:00) 15.4 8.89 (19:00) 5.83 (19:00) 0 0 0 0 0
12-04-2019 22.1 (18:40) 2.8 (00:00) 12.5 6.67 (19:00) 3.33 (19:40) 0 0 0 0 0
11-04-2019 19.1 (18:00) 3.6 (00:00) 11.4 7.22 (14:10) 3.89 (13:10) 0 0 0 0 0
10-04-2019 18 (18:40) 7.8 (00:00) 12.9 12.5 (20:30) 6.39 (20:20) 2.2 0 0 0 2.2
09-04-2019 16.3 (17:30) 5.7 (00:00) 11 11.94 (18:50) 7.22 (18:50) 4 0 3.8 0.2 0
08-04-2019 16.5 (15:10) 7.6 (00:00) 12 11.11 (18:20) 6.39 (18:20) 6 5.6 0 0.4 0
07-04-2019 13 (15:00) 6.4 (00:00) 9.7 6.39 (16:50) 3.33 (14:40) 4 0 0 1.2 2.8
06-04-2019 11.5 (16:20) 4.3 (00:00) 7.9 11.94 (17:50) 6.67 (17:50) 1.2 0 1 0 0.2
05-04-2019 12.3 (16:00) 5 (00:00) 8.7 11.39 (16:50) 6.94 (16:50) 5.6 4.6 1 0 0
04-04-2019 16.5 (17:00) 1.5 (00:00) 9 9.72 (20:30) 5.56 (20:40) 1 0 0 0 1
03-04-2019 16.1 (16:50) 4.3 (00:00) 10.2 12.22 (16:40) 7.78 (15:20) 0 0 0 0 0
02-04-2019 21.7 (17:10) 7.3 (00:00) 14.5 7.78 (16:30) 5 (23:59) 0 0 0 0 0
01-04-2019 18.1 (15:20) 7.6 (00:00) 12.9 9.17 (15:40) 4.44 (15:40) 0 0 0 0 0
31-03-2019 22.3 (16:40) 7.6 (00:00) 14.9 8.61 (22:40) 5 (18:10) 0 0 0 0 0
30-03-2019 22.4 (16:10) 5.9 (00:00) 14.1 8.06 (09:50) 5 (09:50) 0 0 0 0 0
29-03-2019 21 (15:40) 7.1 (00:00) 14 10.56 (11:50) 7.5 (10:10) 0 0 0 0 0
28-03-2019 22.6 (16:30) 3.9 (00:00) 13.3 8.61 (15:00) 5 (12:50) 0 0 0 0 0
27-03-2019 21.1 (17:00) 6.4 (00:00) 13.8 8.89 (12:10) 4.72 (12:10) 0 0 0 0 0

Gráficas

Temp. máximas Temp. mínimas Temp. medias Precipitaciones Rachas de viento máximas Velocidades máximas media en intervalos de 10 minutos

Datos horarios

Fecha y hora oficial Temperatura (ºC) Velocidad del viento (km/h) Dirección del viento Racha (km/h) Dirección de racha Precipitación (mm) Presión (hPa) Tendencia (hPa) Humedad (%)
2019-04-25 23:00:00 10.2 9 Oeste 20 Oeste 0 -- -- 72
2019-04-25 22:00:00 11 15 Oeste 25 Oeste 0 -- -- 64
2019-04-25 21:00:00 12.3 7 Oeste 33 Oeste 0 -- -- 63
2019-04-25 20:00:00 13.4 18 Oeste 39 Oeste 0 -- -- 57
2019-04-25 19:00:00 13.8 25 Oeste 55 Oeste 0 -- -- 57
2019-04-25 18:00:00 13.9 18 Oeste 39 Oeste 0 -- -- 60
2019-04-25 17:00:00 13.9 20 Oeste 40 Sudoeste 0 -- -- 61
2019-04-25 16:00:00 13.2 22 Oeste 37 Oeste 0 -- -- 59
2019-04-25 15:00:00 13 17 Sudoeste 33 Sudoeste 0 -- -- 67
2019-04-25 14:00:00 9.6 11 Oeste 34 Oeste 0.8 -- -- 86
2019-04-25 13:00:00 12.6 16 Sudoeste 28 Sudoeste 0 -- -- 66
2019-04-25 12:00:00 11.4 17 Oeste 33 Oeste 0 -- -- 72
2019-04-25 11:00:00 10.4 17 Oeste 30 Oeste 0.2 -- -- 80
2019-04-25 10:00:00 9.1 11 Sudoeste 23 Oeste 0 -- -- 86
2019-04-25 09:00:00 8.5 9 Sudoeste 18 Sur 0 -- -- 89
2019-04-25 08:00:00 7.9 5 Sudoeste 18 Sudoeste 0 -- -- 89
2019-04-25 07:00:00 8.6 5 Sudoeste 15 Sudoeste 0 -- -- 89
2019-04-25 06:00:00 8.5 8 Sudoeste 19 Sudoeste 0 -- -- 90
2019-04-25 05:00:00 8.5 8 Sudoeste 24 Sudoeste 0.2 -- -- 90
2019-04-25 04:00:00 9.1 10 Sur 24 Sur 0 -- -- 91
2019-04-25 03:00:00 9.4 10 Sudoeste 20 Sudoeste 0 -- -- 93
2019-04-25 02:00:00 9.8 10 Sudoeste 28 Sur 0 -- -- 91
2019-04-25 01:00:00 9.7 9 Sudoeste 22 Oeste 0 -- -- 90
2019-04-25 00:00:00 10.2 6 Oeste 30 Oeste 0 -- -- 90
2019-04-24 23:00:00 11.1 18 Oeste 38 Oeste 1.8 -- -- 91
2019-04-24 22:00:00 11.9 16 Sudoeste 40 Sudoeste 0.6 -- -- 90
2019-04-24 21:00:00 12.1 8 Sur 17 Sudoeste 0 -- -- 93
2019-04-24 20:00:00 12.2 11 Oeste 31 Oeste 0.4 -- -- 88
2019-04-24 19:00:00 11.7 21 Oeste 46 Oeste 1.4 -- -- 90
2019-04-24 18:00:00 14 19 Sudoeste 41 Sudoeste 0 -- -- 70
2019-04-24 17:00:00 12.7 16 Sudoeste 41 Oeste 0 -- -- 78
2019-04-24 16:00:00 12.6 30 Oeste 50 Oeste 0.8 -- -- 84
2019-04-24 15:00:00 15.8 18 Sudoeste 31 Sudoeste 0 -- -- 73
2019-04-24 14:00:00 13.6 14 Sudoeste 36 Sudoeste 0.6 -- -- 87
2019-04-24 13:00:00 12.9 20 Sur 40 Sur 0 -- -- 88
2019-04-24 12:00:00 11.1 18 Sur 37 Sur 1 -- -- 97
2019-04-24 11:00:00 10.4 19 Sur 38 Sur 0.4 -- -- 96
2019-04-24 10:00:00 9.6 26 Sur 46 Sur 1.8 -- -- 97
2019-04-24 09:00:00 7.9 7 Sudeste 31 Sudeste 5.4 -- -- 98
2019-04-24 08:00:00 7.5 19 Sudeste 31 Sudeste 2.6 -- -- 97
2019-04-24 07:00:00 7.1 10 Sudeste 17 Sudeste 2.4 -- -- 97
2019-04-24 06:00:00 6.8 11 Sur 18 Sur 2 -- -- 96
2019-04-24 05:00:00 6.8 6 Sur 12 Sur 0 -- -- 93
2019-04-24 04:00:00 6.4 4 Sudeste 8 Sudeste 0.2 -- -- 93
2019-04-24 03:00:00 6.3 2 Sur 6 Sur 0 -- -- 90
2019-04-24 02:00:00 6.1 3 Sur 6 Sur 0 -- -- 90
2019-04-24 01:00:00 6 4 Sur 10 Sudoeste 0 -- -- 88
2019-04-24 00:00:00 6.2 4 Oeste 8 Sudoeste 0 -- -- 86
2019-04-23 23:00:00 7 5 Sudoeste 18 Oeste 0 -- -- 81
2019-04-23 22:00:00 7.7 11 Oeste 28 Sudoeste 0 -- -- 77
2019-04-23 21:00:00 8.7 14 Oeste 27 Oeste 0 -- -- 71
2019-04-23 20:00:00 10.8 17 Oeste 32 Oeste 0 -- -- 66
2019-04-23 19:00:00 10.8 14 Oeste 40 Oeste 0 -- -- 69
2019-04-23 18:00:00 12.6 21 Oeste 37 Oeste 0 -- -- 61
2019-04-23 17:00:00 10.8 19 Oeste 45 Oeste 0 -- -- 68
2019-04-23 16:00:00 11.8 20 Oeste 42 Oeste 0 -- -- 71
2019-04-23 15:00:00 8.2 21 Oeste 39 Oeste 1.2 -- -- 85
2019-04-23 14:00:00 8.4 17 Oeste 41 Oeste 1.2 -- -- 81
2019-04-23 13:00:00 10.8 14 Oeste 28 Oeste 0.2 -- -- 74
2019-04-23 12:00:00 10.4 13 Sudoeste 29 Oeste 0 -- -- 72
2019-04-23 11:00:00 9.4 11 Sudoeste 25 Oeste 0 -- -- 77
2019-04-23 10:00:00 8.7 12 Sudoeste 24 Oeste 0 -- -- 87
2019-04-23 09:00:00 6.8 5 Oeste 13 Oeste 0 -- -- 94
2019-04-23 08:00:00 6.7 6 Oeste 15 Oeste 0 -- -- 93
2019-04-23 07:00:00 7.8 8 Sudoeste 26 Sur 0 -- -- 92
2019-04-23 06:00:00 8.6 5 Sudoeste 11 Sudoeste 0 -- -- 94
2019-04-23 05:00:00 8.5 6 Sudoeste 15 Oeste 0.4 -- -- 93
2019-04-23 04:00:00 8.8 9 Oeste 36 Oeste 1.4 -- -- 92
2019-04-23 03:00:00 9.8 23 Oeste 38 Oeste 1.6 -- -- 86
2019-04-23 02:00:00 12.7 12 Oeste 24 Oeste 0.2 -- -- 84
2019-04-23 01:00:00 13.5 8 Oeste 16 Sudoeste 0 -- -- 81
2019-04-23 00:00:00 14.1 10 Oeste 26 Sudoeste 0 -- -- 74
2019-04-22 23:00:00 15.5 4 Sudoeste 19 Sudoeste 0 -- -- 62
2019-04-22 22:00:00 16.3 8 Oeste 22 Sudoeste 0 -- -- 57
2019-04-22 21:00:00 17.3 13 Oeste 27 Oeste 0 -- -- 55
2019-04-22 20:00:00 18.9 12 Oeste 25 Sudoeste 0 -- -- 50
2019-04-22 19:00:00 20 13 Oeste 23 Oeste 0 -- -- 45
2019-04-22 18:00:00 20.9 9 Oeste 19 Oeste 0 -- -- 43
2019-04-22 17:00:00 20.9 7 Noroeste 23 Sur 0 -- -- 43
2019-04-22 16:00:00 20.9 10 Sudoeste 36 Sudoeste 0 -- -- 43
2019-04-22 15:00:00 19.7 12 Sudoeste 21 Sur 0 -- -- 48
2019-04-22 14:00:00 18.9 10 Sur 18 Sur 0 -- -- 49
2019-04-22 13:00:00 17.7 7 Sur 15 Sur 0 -- -- 51
2019-04-22 12:00:00 16.6 6 Sudeste 16 Sudeste 0 -- -- 54
2019-04-22 11:00:00 15.5 5 Este 13 Sudeste 0 -- -- 59
2019-04-22 10:00:00 13 5 Este 9 Este 0 -- -- 71
2019-04-22 09:00:00 9.5 2 Nordeste 5 Oeste 0 -- -- 86
2019-04-22 08:00:00 6.8 2 Noroeste 6 Oeste 0 -- -- 91
2019-04-22 07:00:00 7.3 3 Noroeste 5 Oeste 0 -- -- 90
2019-04-22 06:00:00 7.4 2 Norte 3 Norte 0 -- -- 91
2019-04-22 05:00:00 9.2 2 Noroeste 10 Este 0 -- -- 85
2019-04-22 04:00:00 11.7 4 Este 8 Sudeste 0 -- -- 72
2019-04-22 03:00:00 11.8 3 Nordeste 4 Nordeste 0 -- -- 84
2019-04-22 02:00:00 11.6 0 Calma 6 Este 0 -- -- 82
2019-04-22 01:00:00 12.4 2 Noroeste 3 Noroeste 0 -- -- 80
2019-04-22 00:00:00 12.7 0 Calma 5 Este 0 -- -- 74
2019-04-21 23:00:00 12.9 2 Norte 6 Norte 0 -- -- 77
2019-04-21 22:00:00 13.2 0 Calma 11 Sudeste 0 -- -- 73
2019-04-21 21:00:00 15.3 5 Sudeste 14 Sudeste 0 -- -- 65
2019-04-21 20:00:00 16.6 7 Sudeste 20 Sudeste 0 -- -- 59
2019-04-21 19:00:00 17.5 12 Sudeste 27 Sudeste 0 -- -- 53
2019-04-21 18:00:00 20 15 Sudeste 25 Este 0 -- -- 50
2019-04-21 17:00:00 21.2 8 Sudeste 26 Sudeste 0 -- -- 42
2019-04-21 16:00:00 21.5 11 Este 24 Nordeste 0 -- -- 41
2019-04-21 15:00:00 19.8 9 Nordeste 21 Nordeste 0 -- -- 45
2019-04-21 14:00:00 18.6 8 Norte 28 Nordeste 0 -- -- 45
2019-04-21 13:00:00 17.2 13 Nordeste 31 Nordeste 0 -- -- 48
2019-04-21 12:00:00 17.7 16 Nordeste 33 Nordeste 0 -- -- 50
2019-04-21 11:00:00 15.6 11 Norte 26 Norte 0 -- -- 59
2019-04-21 10:00:00 12.8 6 Nordeste 15 Nordeste 0 -- -- 73
2019-04-21 09:00:00 11 8 Norte 13 Norte 0 -- -- 79
2019-04-21 08:00:00 9.7 3 Noroeste 13 Noroeste 0 -- -- 80
2019-04-21 07:00:00 9.1 3 Noroeste 10 Noroeste 0 -- -- 84
2019-04-21 06:00:00 9.7 5 Oeste 15 Sudeste 0 -- -- 81
2019-04-21 05:00:00 11.5 9 Sudeste 21 Este 0 -- -- 73
2019-04-21 04:00:00 11.8 11 Este 28 Sudeste 0 -- -- 68
2019-04-21 03:00:00 12.7 11 Sudeste 29 Este 0 -- -- 67
2019-04-21 02:00:00 13.6 12 Sudeste 30 Sudeste 0 -- -- 66
2019-04-21 01:00:00 14.4 16 Sudeste 28 Sudeste 0 -- -- 63
2019-04-21 00:00:00 16 13 Sur 20 Sur 0 -- -- 61
2019-04-20 23:00:00 17.8 9 Sudeste 15 Sur 0 -- -- 55
2019-04-20 22:00:00 18.8 4 Sur 10 Sur 0 -- -- 51
2019-04-20 21:00:00 20 5 Sudeste 19 Sudeste 0 -- -- 48
2019-04-20 20:00:00 21.6 9 Sudeste 24 Sudeste 0 -- -- 45
2019-04-20 19:00:00 24.2 12 Sudeste 22 Sudeste 0 -- -- 39
2019-04-20 18:00:00 24.3 13 Sudeste 22 Sudeste 0 -- -- 40
2019-04-20 17:00:00 24.2 11 Sudeste 27 Sudeste 0 -- -- 41
2019-04-20 16:00:00 24.2 8 Este 28 Este 0 -- -- 41
2019-04-20 15:00:00 24.4 12 Este 28 Sudeste 0 -- -- 40
2019-04-20 14:00:00 22.3 9 Sudeste 28 Este 0 -- -- 48
2019-04-20 13:00:00 21.4 12 Este 24 Nordeste 0 -- -- 45
2019-04-20 12:00:00 19.2 11 Nordeste 26 Nordeste 0 -- -- 49
2019-04-20 11:00:00 17.2 13 Nordeste 28 Nordeste 0 -- -- 56
2019-04-20 10:00:00 14.7 10 Nordeste 25 Nordeste 0 -- -- 64
2019-04-20 09:00:00 11.5 6 Norte 13 Norte 0 -- -- 80
2019-04-20 08:00:00 9.2 0 Calma 6 Oeste 0 -- -- 96
2019-04-20 07:00:00 9.7 5 Sudeste 12 Sudeste 0 -- -- 95
2019-04-20 06:00:00 10.7 3 Noroeste 13 Noroeste 0 -- -- 90
2019-04-20 05:00:00 9.7 2 Noroeste 8 Oeste 0 -- -- 93
2019-04-20 04:00:00 9.6 5 Norte 10 Oeste 0 -- -- 93
2019-04-20 03:00:00 10.1 3 Norte 15 Sudeste 0 -- -- 90
2019-04-20 02:00:00 11.4 10 Sudeste 25 Sudeste 0 -- -- 86
2019-04-20 01:00:00 11.9 7 Sudeste 15 Sudeste 0 -- -- 85
2019-04-20 00:00:00 11.8 8 Sudeste 17 Sudeste 0 -- -- 85
2019-04-19 23:00:00 12 8 Sudeste 21 Sudeste 0 -- -- 81
2019-04-19 22:00:00 13 8 Sudeste 19 Sudeste 0 -- -- 77
2019-04-19 21:00:00 13.8 7 Sudeste 21 Sudeste 0 -- -- 73
2019-04-19 20:00:00 14.8 13 Sudeste 24 Sudeste 0 -- -- 71
2019-04-19 19:00:00 16.1 10 Sudeste 22 Sudeste 0 -- -- 70
2019-04-19 18:00:00 17 5 Este 21 Sudeste 0 -- -- 64
2019-04-19 17:00:00 17.1 8 Norte 18 Norte 0 -- -- 63
2019-04-19 16:00:00 16.4 6 Norte 28 Este 0 -- -- 65
2019-04-19 15:00:00 18.5 12 Sudeste 27 Este 0 -- -- 58
2019-04-19 14:00:00 16.3 10 Este 23 Sudeste 0 -- -- 66
2019-04-19 13:00:00 16 12 Sudeste 23 Sudeste 0 -- -- 70
2019-04-19 12:00:00 12.4 5 Sudeste 10 Sudeste 0 -- -- 86
2019-04-19 11:00:00 11.2 0 Calma 9 Este 0 -- -- 88
2019-04-19 10:00:00 10.8 5 Este 10 Este 0 -- -- 89
2019-04-19 09:00:00 10.4 4 Este 6 Este 0 -- -- 94
2019-04-19 08:00:00 9 0 Calma 7 Sudeste 0 -- -- 97
2019-04-19 07:00:00 9.1 3 Este 4 Sudeste 0 -- -- 98
2019-04-19 06:00:00 8.8 4 Sudeste 9 Sudeste 0 -- -- 97
2019-04-19 05:00:00 8.8 0 Calma 4 Nordeste 0 -- -- 96
2019-04-19 04:00:00 9.2 0 Calma 4 Noroeste 0 -- -- 95
2019-04-19 03:00:00 9.6 0 Calma 4 Este 0 -- -- 95
2019-04-19 02:00:00 9.5 0 Calma 5 Noroeste 0 -- -- 95
2019-04-19 01:00:00 10.1 3 Nordeste 6 Sudeste 0 -- -- 92
2019-04-19 00:00:00 11 4 Noroeste 6 Noroeste 0 -- -- 87
2019-04-18 23:00:00 10.6 4 Noroeste 14 Norte 0 -- -- 88
2019-04-18 22:00:00 10.5 5 Norte 11 Norte 0 -- -- 91
2019-04-18 21:00:00 11.8 0 Calma 12 Sudeste 0 -- -- 84
2019-04-18 20:00:00 12.5 10 Sudeste 20 Sur 0 -- -- 79
2019-04-18 19:00:00 13.6 10 Norte 33 Nordeste 0 -- -- 70
2019-04-18 18:00:00 16.8 10 Nordeste 24 Norte 0 -- -- 61
2019-04-18 17:00:00 17.5 4 Sur 9 Oeste 0 -- -- 61
2019-04-18 16:00:00 15.7 4 Sudoeste 16 Oeste 0 -- -- 68
2019-04-18 15:00:00 16.8 9 Sur 15 Sudeste 0 -- -- 63
2019-04-18 14:00:00 15.2 7 Sudeste 13 Sur 0 -- -- 71
2019-04-18 13:00:00 13.9 3 Este 15 Sudeste 0 -- -- 78
2019-04-18 12:00:00 13.1 6 Sudeste 12 Este 0 -- -- 85
2019-04-18 11:00:00 12.2 5 Este 9 Este 0 -- -- 89
2019-04-18 10:00:00 11.7 3 Sudeste 9 Sudeste 0 -- -- 91
2019-04-18 09:00:00 10.5 3 Este 6 Este 1.2 -- -- 97
2019-04-18 08:00:00 10.3 0 Calma 7 Este 0 -- -- 96
2019-04-18 07:00:00 10.3 3 Sudeste 7 Sudeste 0 -- -- 95
2019-04-18 06:00:00 10.1 0 Calma 8 Este 0 -- -- 96
2019-04-18 05:00:00 10.1 2 Sudeste 6 Este 0 -- -- 96
2019-04-18 04:00:00 10.2 3 Sudeste 6 Sur 0 -- -- 95
2019-04-18 03:00:00 10.6 3 Sur 12 Sur 0 -- -- 95
2019-04-18 02:00:00 10.6 4 Sur 12 Sudeste 0 -- -- 97
2019-04-18 01:00:00 10.6 7 Sur 23 Sur 2 -- -- 96
2019-04-18 00:00:00 10.8 7 Sur 17 Sudoeste 2.6 -- -- 97
2019-04-17 23:00:00 10.9 13 Sudeste 21 Sudeste 3.6 -- -- 97
2019-04-17 22:00:00 11.1 3 Sudeste 15 Sudeste 0.4 -- -- 96
2019-04-17 21:00:00 11 4 Sudeste 9 Sudeste 1.6 -- -- 96
2019-04-17 20:00:00 11 5 Sudeste 12 Sur 3 -- -- 94
2019-04-17 19:00:00 11.1 6 Sur 34 Oeste 2 -- -- 91
2019-04-17 18:00:00 13.3 22 Oeste 50 Sur 0.4 -- -- 86
2019-04-17 17:00:00 18.6 20 Sudeste 46 Sudeste 0 -- -- 50
2019-04-17 16:00:00 19.2 28 Sur 45 Sur 0 -- -- 47
2019-04-17 15:00:00 18.7 23 Sudeste 39 Sudeste 0 -- -- 50
2019-04-17 14:00:00 18 19 Sudeste 39 Sudeste 0 -- -- 57
2019-04-17 13:00:00 17 18 Sudeste 33 Sudeste 0 -- -- 60
2019-04-17 12:00:00 15.7 21 Sudeste 33 Sudeste 0 -- -- 65
2019-04-17 11:00:00 14.8 15 Sudeste 27 Sudeste 0 -- -- 67
2019-04-17 10:00:00 13.5 12 Sur 22 Sur 0 -- -- 72
2019-04-17 09:00:00 11.6 9 Sur 16 Sur 0 -- -- 73
2019-04-17 08:00:00 8.5 2 Sudeste 6 Oeste 0 -- -- 83
2019-04-17 07:00:00 9.8 4 Oeste 10 Sudoeste 0 -- -- 75
2019-04-17 06:00:00 10.9 6 Sudoeste 10 Sudoeste 0 -- -- 70
2019-04-17 05:00:00 9.6 2 Norte 4 Norte 0 -- -- 78
2019-04-17 04:00:00 13 3 Sudoeste 12 Sudoeste 0 -- -- 62
2019-04-17 03:00:00 13.5 4 Sur 10 Sudeste 0 -- -- 64
2019-04-17 02:00:00 14.7 6 Sudeste 11 Sudeste 0 -- -- 55
2019-04-17 01:00:00 14.2 3 Sudeste 15 Sudeste 0 -- -- 59
2019-04-17 00:00:00 14.3 7 Sudeste 20 Este 0 -- -- 60
2019-04-16 23:00:00 15 5 Nordeste 9 Este 0 -- -- 59
2019-04-16 22:00:00 16 3 Nordeste 10 Este 0 -- -- 60
2019-04-16 21:00:00 18.2 6 Este 14 Sudeste 0 -- -- 48
2019-04-16 20:00:00 20.8 7 Sudeste 23 Sudeste 0 -- -- 42
2019-04-16 19:00:00 22.4 13 Sudeste 27 Sudeste 0 -- -- 39
2019-04-16 18:00:00 22.8 13 Sudeste 30 Este 0 -- -- 39
2019-04-16 17:00:00 22.1 17 Sudeste 36 Sudeste 0 -- -- 43
2019-04-16 16:00:00 22 15 Sudeste 29 Sudeste 0 -- -- 43
2019-04-16 15:00:00 20.1 13 Sudeste 29 Sur 0 -- -- 45
2019-04-16 14:00:00 19.2 16 Sudeste 29 Sudeste 0 -- -- 46
2019-04-16 13:00:00 17.8 14 Sudeste 28 Sudeste 0 -- -- 53
2019-04-16 12:00:00 15.6 7 Sur 14 Sudoeste 0 -- -- 65
2019-04-16 11:00:00 13.9 5 Sur 11 Sudeste 0 -- -- 72
2019-04-16 10:00:00 11.4 5 Este 10 Este 0 -- -- 82
2019-04-16 09:00:00 7 0 Calma 4 Nordeste 0 -- -- 97
2019-04-16 08:00:00 4.7 0 Calma 3 Oeste 0 -- -- 95
2019-04-16 07:00:00 5.6 3 Noroeste 6 Oeste 0 -- -- 94
2019-04-16 06:00:00 6 3 Noroeste 5 Oeste 0 -- -- 94
2019-04-16 05:00:00 6.4 2 Noroeste 5 Oeste 0 -- -- 94
2019-04-16 04:00:00 7.3 3 Oeste 9 Noroeste 0 -- -- 92
2019-04-16 03:00:00 8.1 6 Noroeste 9 Oeste 0 -- -- 89
2019-04-16 02:00:00 8.5 3 Noroeste 8 Nordeste 0 -- -- 87
2019-04-16 01:00:00 10.4 2 Nordeste 13 Norte 0 -- -- 81
2019-04-16 00:00:00 10.5 5 Norte 6 Norte 0 -- -- 86
2019-04-15 23:00:00 11.6 3 Noroeste 10 Noroeste 0 -- -- 86
2019-04-15 22:00:00 13.2 6 Norte 15 Norte 0 -- -- 82
2019-04-15 21:00:00 15.4 4 Nordeste 11 Este 0 -- -- 78
2019-04-15 20:00:00 16.4 5 Sudeste 12 Sudeste 0 -- -- 73
2019-04-15 19:00:00 17.1 3 Este 11 Sudeste 0 -- -- 69
2019-04-15 18:00:00 15.8 9 Noroeste 24 Oeste 0 -- -- 72
2019-04-15 17:00:00 13.4 10 Oeste 24 Oeste 0.6 -- -- 82
2019-04-15 16:00:00 14.4 23 Oeste 50 Oeste 0 -- -- 68
2019-04-15 15:00:00 18.6 26 Oeste 44 Sudoeste 0 -- -- 57
2019-04-15 14:00:00 20.1 16 Oeste 32 Oeste 0 -- -- 43
2019-04-15 13:00:00 19.6 15 Oeste 25 Oeste 0 -- -- 52
2019-04-15 12:00:00 18.3 15 Oeste 27 Sudoeste 0 -- -- 58
2019-04-15 11:00:00 17.5 9 Sudoeste 19 Sudoeste 0 -- -- 74
2019-04-15 10:00:00 16.1 6 Sur 17 Sur 0 -- -- 79
2019-04-15 09:00:00 15.2 8 Sur 17 Sudoeste 0 -- -- 82
2019-04-15 08:00:00 13.4 5 Oeste 9 Oeste 0 -- -- 90
2019-04-15 07:00:00 14.1 0 Calma 5 Noroeste 0 -- -- 87
2019-04-15 06:00:00 14.5 3 Este 8 Nordeste 0 -- -- 88
2019-04-15 05:00:00 14.5 6 Nordeste 8 Nordeste 0 -- -- 85
2019-04-15 04:00:00 15.3 3 Nordeste 5 Nordeste 0 -- -- 84
2019-04-15 03:00:00 14.4 2 Norte 4 Norte 0 -- -- 88
2019-04-15 02:00:00 14.1 3 Norte 4 Norte 0 -- -- 88
2019-04-15 01:00:00 14.7 0 Calma 6 Oeste 0 -- -- 83
2019-04-15 00:00:00 15.8 5 Noroeste 7 Oeste 0 -- -- 80
2019-04-14 23:00:00 17.3 6 Oeste 8 Oeste 0 -- -- 72
2019-04-14 22:00:00 18.4 6 Oeste 10 Oeste 0 -- -- 72
2019-04-14 21:00:00 20.2 2 Oeste 4 Sudoeste 0 -- -- 70
2019-04-14 20:00:00 22.2 0 Calma 12 Sudoeste 0 -- -- 57
2019-04-14 19:00:00 23.2 6 Sur 21 Sur 0 -- -- 52
2019-04-14 18:00:00 23.9 8 Oeste 18 Oeste 0 -- -- 50
2019-04-14 17:00:00 23 6 Noroeste 20 Oeste 0 -- -- 51
2019-04-14 16:00:00 22.4 9 Oeste 19 Oeste 0 -- -- 54
2019-04-14 15:00:00 21.9 6 Oeste 17 Oeste 0 -- -- 56
2019-04-14 14:00:00 21.2 7 Noroeste 17 Sudoeste 0 -- -- 61
2019-04-14 13:00:00 20 5 Noroeste 17 Sur 0 -- -- 63
2019-04-14 12:00:00 17.5 8 Sudeste 13 Sudeste 0 -- -- 77
2019-04-14 11:00:00 15.6 7 Sudeste 11 Sudeste 0 -- -- 87
2019-04-14 10:00:00 14 4 Sudeste 8 Oeste 0 -- -- 89
2019-04-14 09:00:00 11.1 3 Sur 6 Sudeste 0 -- -- 95
2019-04-14 08:00:00 10.1 2 Oeste 6 Oeste 0 -- -- 95
2019-04-14 07:00:00 10.6 4 Oeste 6 Oeste 0 -- -- 94
2019-04-14 06:00:00 11.7 0 Calma 8 Oeste 0 -- -- 93
2019-04-14 05:00:00 12.4 5 Noroeste 12 Noroeste 0 -- -- 93
2019-04-14 04:00:00 12.6 6 Noroeste 9 Noroeste 0 -- -- 93
2019-04-14 03:00:00 13.4 2 Norte 8 Oeste 0 -- -- 88
2019-04-14 02:00:00 13.5 3 Noroeste 10 Oeste 0 -- -- 88
2019-04-14 01:00:00 14.3 8 Noroeste 15 Oeste 0 -- -- 85
2019-04-14 00:00:00 15.8 10 Oeste 22 Oeste 0 -- -- 78
2019-04-13 23:00:00 16.5 12 Oeste 19 Oeste 0 -- -- 72
2019-04-13 22:00:00 17.1 11 Oeste 21 Oeste 0 -- -- 62
2019-04-13 21:00:00 18.3 12 Oeste 25 Oeste 0 -- -- 48
2019-04-13 20:00:00 20.6 16 Oeste 28 Oeste 0 -- -- 35
2019-04-13 19:00:00 20.5 21 Oeste 32 Oeste 0 -- -- 36
2019-04-13 18:00:00 22.9 10 Sur 23 Oeste 0 -- -- 35
2019-04-13 17:00:00 23.3 13 Oeste 24 Oeste 0 -- -- 34
2019-04-13 16:00:00 22.2 9 Oeste 25 Sudoeste 0 -- -- 35
2019-04-13 15:00:00 21.5 9 Sudoeste 19 Sudoeste 0 -- -- 36
2019-04-13 14:00:00 20.8 5 Sudoeste 17 Sur 0 -- -- 39
2019-04-13 13:00:00 19.6 8 Sudeste 15 Sudeste 0 -- -- 43
2019-04-13 12:00:00 18.5 6 Sudeste 9 Sudeste 0 -- -- 50
2019-04-13 11:00:00 15.8 4 Sudeste 8 Sudeste 0 -- -- 62
2019-04-13 10:00:00 10.9 0 Calma 5 Este 0 -- -- 74
2019-04-13 09:00:00 9 0 Calma 5 Oeste 0 -- -- 81
2019-04-13 08:00:00 7.5 2 Noroeste 4 Noroeste 0 -- -- 85
2019-04-13 07:00:00 8.5 4 Sudeste 7 Sudeste 0 -- -- 79
2019-04-13 06:00:00 8.9 3 Noroeste 6 Oeste 0 -- -- 74
2019-04-13 05:00:00 7.9 0 Calma 4 Nordeste 0 -- -- 81
2019-04-13 04:00:00 8.5 2 Noroeste 7 Oeste 0 -- -- 74
2019-04-13 03:00:00 9.7 0 Calma 10 Noroeste 0 -- -- 66
2019-04-13 02:00:00 10.4 3 Noroeste 11 Oeste 0 -- -- 65
2019-04-13 01:00:00 12.3 2 Norte 8 Norte 0 -- -- 59
2019-04-13 00:00:00 13.1 4 Norte 9 Norte 0 -- -- 56
2019-04-12 23:00:00 14.3 4 Norte 14 Noroeste 0 -- -- 53
2019-04-12 22:00:00 15.4 9 Noroeste 17 Norte 0 -- -- 49
2019-04-12 21:00:00 17.3 7 Noroeste 17 Noroeste 0 -- -- 43
2019-04-12 20:00:00 20.5 10 Noroeste 19 Noroeste 0 -- -- 34
2019-04-12 19:00:00 21.7 10 Oeste 24 Noroeste 0 -- -- 31
2019-04-12 18:00:00 21.6 5 Noroeste 17 Oeste 0 -- -- 34
2019-04-12 17:00:00 21.1 5 Nordeste 18 Sudoeste 0 -- -- 36
2019-04-12 16:00:00 20.3 10 Sudoeste 21 Sudoeste 0 -- -- 37
2019-04-12 15:00:00 19.8 6 Oeste 18 Este 0 -- -- 37
2019-04-12 14:00:00 19 11 Nordeste 22 Este 0 -- -- 38
2019-04-12 13:00:00 17.6 7 Norte 20 Sudeste 0 -- -- 36
2019-04-12 12:00:00 15.8 8 Sudeste 14 Sudeste 0 -- -- 53
2019-04-12 11:00:00 12.6 4 Sudeste 8 Sudeste 0 -- -- 65
2019-04-12 10:00:00 9.6 4 Sudeste 8 Este 0 -- -- 73
2019-04-12 09:00:00 4.8 0 Calma 4 Noroeste 0 -- -- 87
2019-04-12 08:00:00 2.8 3 Noroeste 5 Oeste 0 -- -- 91
2019-04-12 07:00:00 3.2 3 Noroeste 4 Noroeste 0 -- -- 91
2019-04-12 06:00:00 3.7 3 Noroeste 4 Noroeste 0 -- -- 88
2019-04-12 05:00:00 4.5 4 Norte 5 Norte 0 -- -- 86
2019-04-12 04:00:00 5.4 4 Noroeste 6 Oeste 0 -- -- 82
2019-04-12 03:00:00 7.4 5 Sur 14 Sudeste 0 -- -- 71
2019-04-12 02:00:00 9.6 4 Norte 15 Nordeste 0 -- -- 59
2019-04-12 01:00:00 10.6 7 Norte 13 Norte 0 -- -- 57
2019-04-12 00:00:00 10.8 6 Norte 12 Norte 0 -- -- 57
2019-04-11 23:00:00 11.2 7 Norte 10 Norte 0 -- -- 58
2019-04-11 22:00:00 12.5 5 Norte 13 Norte 0 -- -- 55
2019-04-11 21:00:00 15.1 5 Norte 19 Norte 0 -- -- 48
2019-04-11 20:00:00 16.7 5 Norte 19 Nordeste 0 -- -- 43
2019-04-11 19:00:00 18.6 10 Norte 20 Norte 0 -- -- 38
2019-04-11 18:00:00 19.1 11 Nordeste 22 Norte 0 -- -- 37
2019-04-11 17:00:00 18 4 Norte 19 Norte 0 -- -- 40
2019-04-11 16:00:00 17.8 8 Nordeste 18 Noroeste 0 -- -- 44
2019-04-11 15:00:00 18.1 3 Sudoeste 26 Norte 0 -- -- 42
2019-04-11 14:00:00 17.5 9 Nordeste 25 Norte 0 -- -- 40
2019-04-11 13:00:00 16 9 Norte 22 Nordeste 0 -- -- 48
2019-04-11 12:00:00 14.5 8 Sudeste 16 Sur 0 -- -- 63
2019-04-11 11:00:00 11.6 4 Sur 14 Sudoeste 0 -- -- 79
2019-04-11 10:00:00 9.1 6 Sudeste 8 Sudeste 0 -- -- 88
2019-04-11 09:00:00 5.8 4 Oeste 5 Noroeste 0 -- -- 97
2019-04-11 08:00:00 3.7 2 Sudoeste 5 Norte 0 -- -- 95
2019-04-11 07:00:00 4.8 2 Sur 7 Norte 0 -- -- 94
2019-04-11 06:00:00 5.3 3 Noroeste 7 Sur 0 -- -- 93
2019-04-11 05:00:00 6.5 2 Sur 13 Nordeste 0 -- -- 90
2019-04-11 04:00:00 7.2 6 Norte 11 Norte 0 -- -- 88
2019-04-11 03:00:00 5.4 5 Norte 7 Norte 0 -- -- 93
2019-04-11 02:00:00 6.9 0 Calma 9 Noroeste 0 -- -- 88
2019-04-11 01:00:00 8.7 6 Oeste 10 Sudoeste 0 -- -- 80
2019-04-11 00:00:00 10 12 Norte 28 Noroeste 0 -- -- 74
2019-04-10 23:00:00 9.1 17 Norte 26 Noroeste 0.4 -- -- 79
2019-04-10 22:00:00 9 12 Norte 28 Norte 1.8 -- -- 85
2019-04-10 21:00:00 10.1 12 Nordeste 45 Nordeste 0 -- -- 70
2019-04-10 20:00:00 15.9 15 Norte 33 Noroeste 0 -- -- 49
2019-04-10 19:00:00 17.9 17 Noroeste 36 Noroeste 0 -- -- 40
2019-04-10 18:00:00 16.6 15 Noroeste 28 Norte 0 -- -- 42
2019-04-10 17:00:00 17.2 18 Noroeste 32 Noroeste 0 -- -- 46
2019-04-10 16:00:00 16.5 13 Noroeste 30 Noroeste 0 -- -- 50
2019-04-10 15:00:00 15.6 14 Noroeste 33 Oeste 0 -- -- 51
2019-04-10 14:00:00 15.2 13 Noroeste 34 Noroeste 0 -- -- 51
2019-04-10 13:00:00 13.8 15 Noroeste 27 Oeste 0 -- -- 57
2019-04-10 12:00:00 13.1 11 Noroeste 24 Noroeste 0 -- -- 59
2019-04-10 11:00:00 10.9 12 Noroeste 24 Noroeste 0 -- -- 65
2019-04-10 10:00:00 10.8 13 Noroeste 22 Noroeste 0 -- -- 67
2019-04-10 09:00:00 8.6 8 Noroeste 13 Noroeste 0 -- -- 81
2019-04-10 08:00:00 7.9 6 Oeste 14 Oeste 0 -- -- 87
2019-04-10 07:00:00 8.2 7 Oeste 13 Oeste 0 -- -- 87
2019-04-10 06:00:00 8.4 4 Sudoeste 7 Sudoeste 0 -- -- 86
2019-04-10 05:00:00 8.1 4 Oeste 5 Oeste 0 -- -- 88
2019-04-10 04:00:00 8.4 3 Noroeste 5 Noroeste -- -- -- 85
2019-04-10 03:00:00 8.6 0 Calma 14 Oeste 0 -- -- 81
2019-04-10 02:00:00 8.2 6 Oeste 14 Oeste 0 -- -- 81
2019-04-10 01:00:00 8.9 9 Oeste 23 Oeste 0 -- -- 77
2019-04-10 00:00:00 10.6 13 Noroeste 22 Noroeste 0 -- -- 66
2019-04-09 23:00:00 10.8 9 Oeste 19 Oeste 0 -- -- 74
2019-04-09 22:00:00 11.2 9 Oeste 16 Noroeste 0 -- -- 73
2019-04-09 21:00:00 11.7 8 Oeste 24 Noroeste 0 -- -- 68
2019-04-09 20:00:00 13.4 15 Noroeste 34 Oeste 0 -- -- 62
2019-04-09 19:00:00 15.6 21 Oeste 43 Oeste 0 -- -- 52
2019-04-09 18:00:00 15.6 19 Oeste 38 Oeste 0 -- -- 48
2019-04-09 17:00:00 15.8 21 Oeste 35 Oeste 0 -- -- 51
2019-04-09 16:00:00 14.7 19 Oeste 38 Sudoeste 0 -- -- 56
2019-04-09 15:00:00 14.3 17 Oeste 32 Oeste 0 -- -- 58
2019-04-09 14:00:00 13.4 17 Oeste 27 Sudoeste 0 -- -- 64
2019-04-09 13:00:00 11.7 14 Oeste 25 Oeste 0.2 -- -- 77
2019-04-09 12:00:00 9.3 9 Noroeste 28 Oeste 2.2 -- -- 91
2019-04-09 11:00:00 9.5 12 Oeste 24 Oeste 0 -- -- 91
2019-04-09 10:00:00 8.8 7 Sudoeste 15 Sur 0 -- -- 94
2019-04-09 09:00:00 8.2 5 Sudoeste 14 Sudoeste 0 -- -- 95
2019-04-09 08:00:00 7.1 2 Sudoeste 11 Sur 0 -- -- 96
2019-04-09 07:00:00 7.7 6 Sudoeste 11 Sur 1.6 -- -- 97
2019-04-09 06:00:00 7.3 3 Sudeste 14 Sudoeste 0 -- -- 93
2019-04-09 05:00:00 6.4 3 Sur 4 Sur 0 -- -- 96
2019-04-09 04:00:00 5.7 3 Oeste 7 Sudoeste 0 -- -- 94
2019-04-09 03:00:00 6.1 4 Sudoeste 7 Sudoeste 0 -- -- 94
2019-04-09 02:00:00 6 3 Noroeste 4 Noroeste 0 -- -- 94
2019-04-09 01:00:00 6.8 0 Calma 8 Oeste 0 -- -- 90
2019-04-09 00:00:00 7.6 5 Oeste 9 Oeste 0 -- -- 87
2019-04-08 23:00:00 8.8 6 Oeste 9 Oeste 0 -- -- 83
2019-04-08 22:00:00 10.4 5 Oeste 12 Oeste 0 -- -- 76
2019-04-08 21:00:00 11.2 6 Oeste 23 Oeste 0 -- -- 70
2019-04-08 20:00:00 12.4 18 Oeste 34 Oeste 0 -- -- 65
2019-04-08 19:00:00 12.9 17 Oeste 40 Oeste 0 -- -- 65
2019-04-08 18:00:00 12.8 22 Oeste 36 Sudoeste 0.4 -- -- 74
2019-04-08 17:00:00 13.8 20 Oeste 34 Oeste 0 -- -- 62
2019-04-08 16:00:00 16 14 Oeste 35 Oeste 0 -- -- 47
2019-04-08 15:00:00 16.3 16 Oeste 31 Oeste 0 -- -- 48
2019-04-08 14:00:00 15.5 12 Sudoeste 24 Oeste 0 -- -- 56
2019-04-08 13:00:00 14.6 11 Oeste 23 Oeste 0 -- -- 64
2019-04-08 12:00:00 12.9 10 Oeste 22 Oeste 0 -- -- 72
2019-04-08 11:00:00 11.7 12 Oeste 22 Oeste 0 -- -- 81
2019-04-08 10:00:00 10.6 8 Oeste 17 Sudoeste 0 -- -- 93
2019-04-08 09:00:00 9.6 9 Oeste 16 Sudoeste 0 -- -- 97
2019-04-08 08:00:00 9.4 7 Oeste 14 Oeste 0 -- -- 96
2019-04-08 07:00:00 10.6 5 Oeste 18 Oeste 0 -- -- 96
2019-04-08 06:00:00 11.1 9 Sudoeste 17 Sudoeste 0 -- -- 97
2019-04-08 05:00:00 11 7 Sudoeste 17 Sur 3.2 -- -- 97
2019-04-08 04:00:00 11 9 Sur 15 Sudeste 1.6 -- -- 97
2019-04-08 03:00:00 11.1 6 Sur 16 Sur 0.8 -- -- 96
2019-04-08 02:00:00 11 7 Sur 12 Sur 0 -- -- 97
2019-04-08 01:00:00 10.8 3 Sur 8 Sur 0 -- -- 98
2019-04-08 00:00:00 11 3 Sur 9 Sur 0 -- -- 97
2019-04-07 23:00:00 11.1 4 Sur 12 Sur 0 -- -- 98
2019-04-07 22:00:00 11 7 Sur 11 Sur 0 -- -- 98
2019-04-07 21:00:00 10.6 6 Sur 10 Sur 0.4 -- -- 98
2019-04-07 20:00:00 10.4 7 Sudeste 14 Sudeste 1.6 -- -- 97
2019-04-07 19:00:00 10.5 6 Sur 14 Sur 0.8 -- -- 96
2019-04-07 18:00:00 10.5 9 Sur 16 Sudoeste 1.2 -- -- 94
2019-04-07 17:00:00 11.7 8 Sudoeste 23 Sur 0 -- -- 78
2019-04-07 16:00:00 12 7 Sudoeste 22 Sudoeste 0 -- -- 75
2019-04-07 15:00:00 13 10 Sudoeste 22 Sur 0 -- -- 65
2019-04-07 14:00:00 12.3 8 Sudoeste 19 Sur 0 -- -- 67
2019-04-07 13:00:00 11.5 8 Sudoeste 14 Sudoeste 0 -- -- 69
2019-04-07 12:00:00 10.1 5 Oeste 12 Oeste 0 -- -- 76
2019-04-07 11:00:00 9.3 6 Oeste 12 Oeste 0 -- -- 78
2019-04-07 10:00:00 8.5 3 Sur 10 Oeste 0 -- -- 83
2019-04-07 09:00:00 7 3 Noroeste 10 Oeste 0 -- -- 91
2019-04-07 08:00:00 6.8 6 Noroeste 13 Oeste 0 -- -- 91
2019-04-07 07:00:00 6.8 7 Oeste 12 Oeste 0 -- -- 91
2019-04-07 06:00:00 6.7 6 Oeste 14 Noroeste 0 -- -- 89
2019-04-07 05:00:00 6.8 7 Oeste 15 Oeste 0 -- -- 90
2019-04-07 04:00:00 6.6 8 Oeste 13 Oeste 0 -- -- 92
2019-04-07 03:00:00 6.5 4 Noroeste 19 Oeste 0 -- -- 90
2019-04-07 02:00:00 6.9 10 Oeste 20 Oeste 0 -- -- 88
2019-04-07 01:00:00 7.2 10 Oeste 20 Oeste 0 -- -- 86
2019-04-07 00:00:00 7.2 9 Oeste 19 Noroeste 0 -- -- 83
2019-04-06 23:00:00 7.5 9 Oeste 22 Oeste 0 -- -- 80
2019-04-06 22:00:00 7.9 11 Oeste 20 Oeste 0 -- -- 75
2019-04-06 21:00:00 9 8 Oeste 25 Oeste 0 -- -- 71
2019-04-06 20:00:00 10.3 15 Oeste 35 Oeste 0 -- -- 65
2019-04-06 19:00:00 9.5 18 Oeste 29 Noroeste 0.2 -- -- 68
2019-04-06 18:00:00 8.5 18 Noroeste 43 Oeste 0 -- -- 79
2019-04-06 17:00:00 11 19 Oeste 37 Oeste 0 -- -- 61
2019-04-06 16:00:00 10.3 17 Oeste 32 Oeste 0 -- -- 64
2019-04-06 15:00:00 9.9 17 Oeste 32 Sudoeste 0 -- -- 69
2019-04-06 14:00:00 9.7 18 Oeste 36 Oeste 0 -- -- 71
2019-04-06 13:00:00 8.4 17 Oeste 38 Oeste 0 -- -- 75
2019-04-06 12:00:00 7.4 14 Oeste 37 Oeste 0.4 -- -- 85
2019-04-06 11:00:00 7.3 13 Sudoeste 25 Sudoeste 0 -- -- 86
2019-04-06 10:00:00 6.6 12 Oeste 26 Oeste 0 -- -- 89
2019-04-06 09:00:00 6.2 9 Sudoeste 21 Sudoeste 0.2 -- -- 94
2019-04-06 08:00:00 5.5 4 Sur 10 Sur 0.4 -- -- 96
2019-04-06 07:00:00 5.4 3 Sur 8 Sur 0 -- -- 95
2019-04-06 06:00:00 5.4 3 Sudoeste 10 Sudoeste 0 -- -- 93
2019-04-06 05:00:00 4.9 4 Sudoeste 13 Sudoeste 0 -- -- 95
2019-04-06 04:00:00 5 6 Oeste 11 Oeste 0 -- -- 94
2019-04-06 03:00:00 4.5 0 Calma 10 Oeste 0 -- -- 92
2019-04-06 02:00:00 4.5 5 Noroeste 11 Oeste 0 -- -- 90
2019-04-06 01:00:00 4.8 5 Sudoeste 14 Oeste 0 -- -- 85
2019-04-06 00:00:00 5 10 Oeste 17 Oeste 0 -- -- 84
2019-04-05 23:00:00 6.1 10 Oeste 24 Oeste 0 -- -- 81
2019-04-05 22:00:00 6.8 4 Oeste 33 Oeste 0 -- -- 81
2019-04-05 21:00:00 8.6 13 Oeste 29 Sudoeste 0 -- -- 75
2019-04-05 20:00:00 9.1 14 Sudoeste 26 Sudoeste 0 -- -- 74
2019-04-05 19:00:00 10.6 17 Sudoeste 41 Oeste 0 -- -- 64
2019-04-05 18:00:00 11.9 18 Sudoeste 36 Oeste 0 -- -- 52
2019-04-05 17:00:00 9 21 Oeste 41 Oeste 0 -- -- 73
2019-04-05 16:00:00 12.3 18 Sudoeste 39 Oeste 0 -- -- 48
2019-04-05 15:00:00 10.6 18 Oeste 30 Noroeste 0 -- -- 57
2019-04-05 14:00:00 9.6 21 Oeste 35 Oeste 0 -- -- 68
2019-04-05 13:00:00 9.2 13 Oeste 28 Oeste 0 -- -- 74
2019-04-05 12:00:00 8 10 Oeste 20 Noroeste 0.2 -- -- 83
2019-04-05 11:00:00 5.9 12 Oeste 37 Oeste 0.6 -- -- 89
2019-04-05 10:00:00 6.9 10 Oeste 20 Oeste 0 -- -- 91
2019-04-05 09:00:00 6.8 3 Oeste 10 Sudoeste 0 -- -- 94
2019-04-05 08:00:00 6.9 3 Sudoeste 13 Sudoeste 0 -- -- 95
2019-04-05 07:00:00 7.3 7 Sudoeste 22 Sudoeste 0.2 -- -- 94
2019-04-05 06:00:00 7.5 10 Sur 24 Sur 0.4 -- -- 95
2019-04-05 05:00:00 7.4 9 Sur 23 Sur 0 -- -- 94
2019-04-05 04:00:00 7.2 12 Sur 23 Sur 0 -- -- 96
2019-04-05 03:00:00 6.9 9 Sur 17 Sudeste 1.6 -- -- 97
2019-04-05 02:00:00 6.8 9 Sudeste 15 Sudeste 2.4 -- -- 95
2019-04-05 01:00:00 7.2 3 Sur 8 Sudeste 0.2 -- -- 91
2019-04-05 00:00:00 7.3 4 Sur 10 Oeste 0 -- -- 91
2019-04-04 23:00:00 7.4 5 Oeste 17 Oeste 0.2 -- -- 88
2019-04-04 22:00:00 7.5 10 Noroeste 33 Oeste 0.8 -- -- 85
2019-04-04 21:00:00 10.4 20 Oeste 35 Oeste 0 -- -- 64
2019-04-04 20:00:00 13.9 13 Oeste 26 Sudoeste 0 -- -- 40
2019-04-04 19:00:00 14.7 17 Oeste 28 Oeste 0 -- -- 30
2019-04-04 18:00:00 15.5 11 Sudoeste 25 Oeste 0 -- -- 28
2019-04-04 17:00:00 16.5 9 Sudoeste 24 Oeste 0 -- -- 27
2019-04-04 16:00:00 15.5 11 Oeste 22 Sur 0 -- -- 25
2019-04-04 15:00:00 14.9 6 Sur 20 Sur 0 -- -- 28
2019-04-04 14:00:00 14.4 7 Sudoeste 16 Oeste 0 -- -- 31
2019-04-04 13:00:00 13 5 Sur 16 Sudeste 0 -- -- 33
2019-04-04 12:00:00 11.2 7 Nordeste 19 Norte 0 -- -- 39
2019-04-04 11:00:00 9.5 6 Nordeste 13 Este 0 -- -- 45
2019-04-04 10:00:00 6.6 6 Este 12 Este 0 -- -- 60
2019-04-04 09:00:00 3.1 6 Sudeste 18 Norte 0 -- -- 68
2019-04-04 08:00:00 3.1 9 Norte 13 Norte 0 -- -- 66
2019-04-04 07:00:00 1.9 3 Sudeste 6 Oeste 0 -- -- 72
2019-04-04 06:00:00 2.8 2 Noroeste 9 Norte 0 -- -- 69
2019-04-04 05:00:00 4.8 6 Norte 15 Norte 0 -- -- 59
2019-04-04 04:00:00 5.7 4 Norte 14 Norte 0 -- -- 56
2019-04-04 03:00:00 6.8 6 Norte 22 Nordeste 0 -- -- 53
2019-04-04 02:00:00 7.5 13 Norte 24 Norte 0 -- -- 52
2019-04-04 01:00:00 8.1 9 Norte 21 Noroeste 0 -- -- 51
2019-04-04 00:00:00 9 11 Noroeste 26 Norte 0 -- -- 49
2019-04-03 23:00:00 9.6 12 Noroeste 22 Norte 0 -- -- 44
2019-04-03 22:00:00 11 17 Norte 29 Norte 0 -- -- 40
2019-04-03 21:00:00 11.7 15 Norte 30 Norte 0 -- -- 37
2019-04-03 20:00:00 13.9 20 Norte 38 Noroeste 0 -- -- 34
2019-04-03 19:00:00 14.9 27 Noroeste 40 Noroeste 0 -- -- 34
2019-04-03 18:00:00 15.9 23 Norte 40 Norte 0 -- -- 34
2019-04-03 17:00:00 15.8 24 Norte 44 Norte 0 -- -- 36
2019-04-03 16:00:00 15.6 22 Noroeste 42 Noroeste 0 -- -- 37
2019-04-03 15:00:00 15.3 20 Noroeste 34 Norte 0 -- -- 38
2019-04-03 14:00:00 15.1 17 Norte 43 Noroeste 0 -- -- 39
2019-04-03 13:00:00 14 20 Norte 31 Noroeste 0 -- -- 43
2019-04-03 12:00:00 13.2 14 Noroeste 26 Norte 0 -- -- 49
2019-04-03 11:00:00 12.3 11 Norte 24 Norte 0 -- -- 55
2019-04-03 10:00:00 10.5 14 Norte 22 Norte 0 -- -- 62
2019-04-03 09:00:00 5.4 3 Noroeste 5 Oeste 0 -- -- 87
2019-04-03 08:00:00 4.5 4 Oeste 8 Oeste 0 -- -- 89
2019-04-03 07:00:00 4.8 0 Calma 6 Este 0 -- -- 87
2019-04-03 06:00:00 7.5 2 Nordeste 12 Oeste 0 -- -- 72
2019-04-03 05:00:00 6.9 5 Noroeste 9 Noroeste 0 -- -- 80
2019-04-03 04:00:00 7.1 5 Noroeste 7 Oeste 0 -- -- 83
2019-04-03 03:00:00 8.3 4 Noroeste 7 Noroeste 0 -- -- 80
2019-04-03 02:00:00 10.1 2 Noroeste 8 Nordeste 0 -- -- 73
2019-04-03 01:00:00 12.8 3 Sur 28 Noroeste 0 -- -- 62
2019-04-03 00:00:00 14.4 18 Noroeste 26 Noroeste 0 -- -- 58
2019-04-02 23:00:00 15 11 Noroeste 20 Norte 0 -- -- 51
2019-04-02 22:00:00 14.6 8 Oeste 11 Oeste 0 -- -- 60
2019-04-02 21:00:00 16.5 5 Oeste 16 Oeste 0 -- -- 54
2019-04-02 20:00:00 19.8 11 Oeste 24 Oeste 0 -- -- 44
2019-04-02 19:00:00 19.5 12 Oeste 22 Oeste 0 -- -- 45
2019-04-02 18:00:00 21 14 Oeste 25 Oeste 0 -- -- 41
2019-04-02 17:00:00 21.6 11 Oeste 28 Oeste 0 -- -- 38
2019-04-02 16:00:00 21 10 Oeste 23 Noroeste 0 -- -- 41
2019-04-02 15:00:00 19.3 7 Norte 16 Oeste 0 -- -- 47
2019-04-02 14:00:00 19.9 6 Sudoeste 14 Sudoeste 0 -- -- 46
2019-04-02 13:00:00 17.9 8 Sudeste 18 Sur 0 -- -- 61
2019-04-02 12:00:00 15.8 6 Sudeste 13 Sudeste 0 -- -- 69
2019-04-02 11:00:00 13.3 4 Sudeste 10 Sudeste 0 -- -- 80
2019-04-02 10:00:00 10.7 4 Sur 6 Sudeste 0 -- -- 88
2019-04-02 09:00:00 7.9 2 Noroeste 6 Oeste 0 -- -- 94
2019-04-02 08:00:00 7.6 4 Oeste 6 Noroeste 0 -- -- 94
2019-04-02 07:00:00 8.8 2 Nordeste 7 Nordeste 0 -- -- 89
2019-04-02 06:00:00 9.9 4 Norte 6 Norte 0 -- -- 89
2019-04-02 05:00:00 9.6 0 Calma 4 Sudeste 0 -- -- 89
2019-04-02 04:00:00 10.3 0 Calma 4 Oeste 0 -- -- 86
2019-04-02 03:00:00 10 3 Noroeste 5 Oeste 0 -- -- 87
2019-04-02 02:00:00 9.6 3 Norte 8 Sudeste 0 -- -- 84
2019-04-02 01:00:00 11.5 4 Oeste 11 Noroeste 0 -- -- 74
2019-04-02 00:00:00 12.8 5 Noroeste 10 Oeste 0 -- -- 69
2019-04-01 23:00:00 13.9 3 Sudeste 18 Norte 0 -- -- 66
2019-04-01 22:00:00 13.9 11 Norte 22 Norte 0 -- -- 63
2019-04-01 21:00:00 15.5 8 Norte 23 Nordeste 0 -- -- 61
2019-04-01 20:00:00 17.2 5 Sudoeste 15 Sudoeste 0 -- -- 56
2019-04-01 19:00:00 17.2 7 Sudoeste 13 Sudoeste 0 -- -- 58
2019-04-01 18:00:00 17.9 5 Oeste 11 Oeste 0 -- -- 55
2019-04-01 17:00:00 16.4 7 Oeste 22 Oeste 0 -- -- 63
2019-04-01 16:00:00 16.8 13 Sudoeste 33 Sudoeste 0 -- -- 63
2019-04-01 15:00:00 17.9 4 Sudeste 18 Sudeste 0 -- -- 53
2019-04-01 14:00:00 16.8 8 Sur 18 Sudeste 0 -- -- 58
2019-04-01 13:00:00 15.7 11 Sudeste 17 Sudeste 0 -- -- 62
2019-04-01 12:00:00 14.3 9 Sudeste 15 Sudeste 0 -- -- 68
2019-04-01 11:00:00 13.2 6 Sudeste 15 Sudeste 0 -- -- 74
2019-04-01 10:00:00 11.6 5 Este 12 Sudeste 0 -- -- 78
2019-04-01 09:00:00 9.7 4 Este 10 Este 0 -- -- 85
2019-04-01 08:00:00 7.6 3 Norte 4 Norte 0 -- -- 89
2019-04-01 07:00:00 8.7 2 Sudeste 10 Sudeste 0 -- -- 84
2019-04-01 06:00:00 10.7 6 Sudeste 15 Sudeste 0 -- -- 77
2019-04-01 05:00:00 11 4 Sudeste 10 Sudeste 0 -- -- 75
2019-04-01 04:00:00 11.9 4 Sudeste 15 Sudeste 0 -- -- 71
2019-04-01 03:00:00 12.3 8 Sudeste 16 Sudeste 0 -- -- 69
2019-04-01 02:00:00 13.1 12 Sudeste 22 Sudeste 0 -- -- 65
2019-04-01 01:00:00 13 8 Sudeste 26 Sudeste 0 -- -- 65
2019-04-01 00:00:00 13.4 14 Sudeste 29 Sudeste 0 -- -- 64
2019-03-31 23:00:00 13.9 15 Sudeste 31 Este 0 -- -- 62
2019-03-31 22:00:00 14 9 Sudeste 17 Sudeste 0 -- -- 63
2019-03-31 21:00:00 15.4 9 Sudeste 25 Sudeste 0 -- -- 56
2019-03-31 20:00:00 17.6 4 Nordeste 18 Norte 0 -- -- 47
2019-03-31 19:00:00 18.4 15 Norte 31 Norte 0 -- -- 43
2019-03-31 18:00:00 17.7 17 Norte 28 Norte 0 -- -- 45
2019-03-31 17:00:00 21.7 13 Sudeste 26 Este 0 -- -- 38
2019-03-31 16:00:00 21.5 13 Sudeste 30 Sudeste 0 -- -- 39
2019-03-31 15:00:00 20.3 13 Sudeste 28 Sur 0 -- -- 42
2019-03-31 14:00:00 19.4 12 Sudeste 24 Sudeste 0 -- -- 44
2019-03-31 13:00:00 18.3 14 Sudeste 26 Este 0 -- -- 47
2019-03-31 12:00:00 16.4 13 Sudeste 25 Este 0 -- -- 52
2019-03-31 11:00:00 13.6 8 Sudeste 13 Sudeste 0 -- -- 60
2019-03-31 10:00:00 12.2 5 Sudeste 13 Sudeste 0 -- -- 63
2019-03-31 09:00:00 10.5 0 Calma 10 Este 0 -- -- 70
2019-03-31 08:00:00 11 9 Este 17 Sudeste 0 -- -- 65
2019-03-31 07:00:00 10.4 6 Sudeste 15 Sudeste 0 -- -- 66
2019-03-31 06:00:00 7.9 2 Nordeste 6 Este 0 -- -- 77
2019-03-31 05:00:00 9.5 0 Calma 5 Oeste 0 -- -- 69
2019-03-31 03:00:00 10.2 4 Norte 8 Sur 0 -- -- 68
2019-03-31 01:00:00 11.8 6 Sur 30 Sudeste 0 -- -- 58
2019-03-31 00:00:00 10.6 3 Norte 8 Sudeste 0 -- -- 66
2019-03-30 23:00:00 13.6 8 Sudeste 15 Sur 0 -- -- 52
2019-03-30 22:00:00 13.8 5 Norte 6 Noroeste 0 -- -- 49
2019-03-30 21:00:00 13.9 4 Nordeste 5 Este 0 -- -- 55
2019-03-30 20:00:00 16.7 0 Calma 17 Sudeste 0 -- -- 42
2019-03-30 19:00:00 18.6 7 Sudeste 19 Sudeste 0 -- -- 33
2019-03-30 18:00:00 20.1 13 Sudeste 21 Sudeste 0 -- -- 31
2019-03-30 17:00:00 21.4 10 Sur 20 Sur 0 -- -- 26
2019-03-30 16:00:00 22.2 9 Este 26 Sudeste 0 -- -- 29
2019-03-30 15:00:00 21.5 9 Sudeste 29 Sur 0 -- -- 31
2019-03-30 14:00:00 20.1 11 Sudeste 22 Este 0 -- -- 35
2019-03-30 13:00:00 18.2 12 Sudeste 26 Sudeste 0 -- -- 40
2019-03-30 12:00:00 16.7 14 Sudeste 27 Sudeste 0 -- -- 42
2019-03-30 11:00:00 15.3 13 Este 27 Sudeste 0 -- -- 46
2019-03-30 10:00:00 13.5 17 Sudeste 29 Sudeste 0 -- -- 49
2019-03-30 09:00:00 10.7 17 Sudeste 27 Sudeste 0 -- -- 58
2019-03-30 08:00:00 9.2 10 Sudeste 23 Sudeste 0 -- -- 62
2019-03-30 07:00:00 8.4 6 Este 23 Sudeste 0 -- -- 64
2019-03-30 06:00:00 9.4 10 Sudeste 20 Este 0 -- -- 61
2019-03-30 05:00:00 8.9 8 Este 17 Este 0 -- -- 61
2019-03-30 04:00:00 8.3 5 Este 16 Este 0 -- -- 60
2019-03-30 03:00:00 7.3 6 Sudeste 11 Sudeste 0 -- -- 60
2019-03-30 02:00:00 7 2 Noroeste 5 Nordeste 0 -- -- 66
2019-03-30 01:00:00 7.5 4 Nordeste 9 Nordeste 0 -- -- 62
2019-03-30 00:00:00 7.7 3 Noroeste 5 Noroeste 0 -- -- 67
2019-03-29 23:00:00 8.4 3 Noroeste 6 Oeste 0 -- -- 66
2019-03-29 22:00:00 10.1 4 Noroeste 6 Noroeste 0 -- -- 58
2019-03-29 21:00:00 11 3 Noroeste 4 Noroeste 0 -- -- 56
2019-03-29 20:00:00 14.9 0 Calma 17 Sur 0 -- -- 44
2019-03-29 19:00:00 19 9 Sudeste 28 Sudeste 0 -- -- 29
2019-03-29 18:00:00 20.2 15 Sudeste 30 Sudeste 0 -- -- 26
2019-03-29 17:00:00 20.5 19 Sudeste 36 Sudeste 0 -- -- 27
2019-03-29 16:00:00 20.9 17 Sudeste 35 Este 0 -- -- 27
2019-03-29 15:00:00 20.6 16 Sudeste 34 Sudeste 0 -- -- 27
2019-03-29 14:00:00 19.6 19 Sudeste 34 Sudeste 0 -- -- 29
2019-03-29 13:00:00 18.6 21 Sudeste 35 Sur 0 -- -- 29
2019-03-29 12:00:00 16.9 23 Sudeste 38 Sudeste 0 -- -- 32
2019-03-29 11:00:00 14.6 20 Sudeste 36 Sudeste 0 -- -- 36
2019-03-29 10:00:00 12.5 25 Sudeste 36 Sudeste 0 -- -- 39
2019-03-29 09:00:00 10.6 16 Sudeste 31 Este 0 -- -- 42
2019-03-29 08:00:00 8.3 6 Sudeste 16 Sudeste 0 -- -- 46
2019-03-29 07:00:00 7.9 5 Sudeste 15 Sudeste 0 -- -- 48
2019-03-29 06:00:00 8.6 5 Este 12 Sudeste 0 -- -- 47
2019-03-29 05:00:00 8.4 3 Este 11 Este 0 -- -- 53
2019-03-29 04:00:00 9.6 5 Nordeste 12 Nordeste 0 -- -- 48
2019-03-29 03:00:00 7.4 5 Nordeste 8 Norte 0 -- -- 63
2019-03-29 02:00:00 10.6 5 Nordeste 8 Nordeste 0 -- -- 46
2019-03-29 01:00:00 10.3 5 Nordeste 9 Nordeste 0 -- -- 50
2019-03-29 00:00:00 10 4 Nordeste 6 Nordeste 0 -- -- 48
2019-03-28 23:00:00 9.5 2 Norte 6 Oeste 0 -- -- 58
2019-03-28 22:00:00 11 3 Norte 6 Nordeste 0 -- -- 50
2019-03-28 21:00:00 11.9 4 Nordeste 9 Sudeste 0 -- -- 53
2019-03-28 20:00:00 15.9 3 Nordeste 10 Sudeste 0 -- -- 43
2019-03-28 19:00:00 20.7 7 Sudeste 15 Sudeste 0 -- -- 26
2019-03-28 18:00:00 21.8 10 Sudeste 20 Este 0 -- -- 24
2019-03-28 17:00:00 22.6 8 Este 22 Este 0 -- -- 24
2019-03-28 16:00:00 22.4 6 Sudeste 23 Este 0 -- -- 22
2019-03-28 15:00:00 21.7 13 Sudeste 31 Este 0 -- -- 26
2019-03-28 14:00:00 20.9 10 Sudeste 27 Sudeste 0 -- -- 25
2019-03-28 13:00:00 19 15 Sudeste 27 Sudeste 0 -- -- 30
2019-03-28 12:00:00 18 14 Sudeste 29 Sudeste 0 -- -- 33
2019-03-28 11:00:00 16.1 17 Sudeste 31 Sudeste 0 -- -- 36
2019-03-28 10:00:00 14 10 Sudeste 22 Sudeste 0 -- -- 41
2019-03-28 09:00:00 9.2 6 Este 10 Nordeste 0 -- -- 54
2019-03-28 08:00:00 5.5 5 Nordeste 8 Nordeste 0 -- -- 63
2019-03-28 07:00:00 4.7 4 Nordeste 9 Nordeste 0 -- -- 70
2019-03-28 06:00:00 6 4 Nordeste 9 Nordeste 0 -- -- 61
2019-03-28 05:00:00 7.5 3 Este 10 Nordeste 0 -- -- 56
2019-03-28 04:00:00 8 6 Este 12 Este 0 -- -- 50
2019-03-28 03:00:00 7.4 4 Nordeste 7 Nordeste 0 -- -- 57
2019-03-28 02:00:00 9.2 5 Sudeste 15 Norte 0 -- -- 58
2019-03-28 01:00:00 11.4 7 Norte 13 Norte 0 -- -- 44
2019-03-28 00:00:00 9 4 Noroeste 6 Oeste 0 -- -- 65
2019-03-27 23:00:00 8.6 4 Noroeste 6 Norte 0 -- -- 68
2019-03-27 22:00:00 10.3 4 Noroeste 6 Oeste 0 -- -- 63
2019-03-27 21:00:00 11.8 5 Oeste 6 Oeste 0 -- -- 57
2019-03-27 20:00:00 15 0 Calma 7 Sudeste 0 -- -- 50
2019-03-27 19:00:00 19.3 6 Sudeste 14 Sudeste 0 -- -- 34
2019-03-27 18:00:00 20.9 5 Sudeste 16 Sudeste 0 -- -- 30
2019-03-27 17:00:00 21.1 9 Sur 18 Sur 0 -- -- 29
2019-03-27 16:00:00 21 9 Sudeste 20 Sur 0 -- -- 31
2019-03-27 15:00:00 20.6 14 Sudeste 32 Sudeste 0 -- -- 33
2019-03-27 14:00:00 19.8 12 Este 24 Sudeste 0 -- -- 34
2019-03-27 13:00:00 18.3 16 Sudeste 32 Sudeste 0 -- -- 37
2019-03-27 12:00:00 17 15 Sudeste 32 Sudeste 0 -- -- 38
2019-03-27 11:00:00 15.6 12 Este 23 Sudeste 0 -- -- 42
2019-03-27 10:00:00 13.4 14 Este 26 Este 0 -- -- 44
2019-03-27 09:00:00 9.6 7 Nordeste 16 Este 0 -- -- 50
2019-03-27 08:00:00 7.7 7 Sudeste 18 Este 0 -- -- 54
2019-03-27 07:00:00 8.2 10 Sudeste 17 Sudeste 0 -- -- 55
2019-03-27 06:00:00 7.2 3 Sudeste 17 Sudeste 0 -- -- 57
2019-03-27 05:00:00 9.7 11 Sudeste 21 Sudeste 0 -- -- 46
2019-03-27 04:00:00 7.9 3 Noroeste 8 Este 0 -- -- 56
2019-03-27 03:00:00 10.2 6 Este 19 Este 0 -- -- 42
2019-03-27 02:00:00 12.3 9 Este 20 Sudeste 0 -- -- 36
2019-03-27 01:00:00 12.1 2 Nordeste 12 Nordeste 0 -- -- 40
2019-03-27 00:00:00 15.4 7 Nordeste 26 Este 0 -- -- 34